• Join FlightAware (Why Join?)
  • Login
  • US Flag 
09:39PM EDT


 

Airport Tracker/Info


-or-


 

Live Flight TrackerFlight Track Log ✈ GJS3657 ✈ 23-Jun-2013 ✈ KDEN - KDAY

Flight Track Log - Related Links

Times and Time Zones

All times are in EDT time to prevent confusion due to time zone crossing. See the GJS3657 flight status page for this flight to view local times or setup timezone preferences in your user account.

Time Position Orientation Groundspeed Altitude Reporting Facility
EDT Latitude Longitude Course Direction KTS MPH feet Rate Location/Type
01:33PM 39.7833 -104.6333 169° South 205 236 7,900  Level Denver TRACON
01:34PM 39.7167 -104.6167 169° South 258 297 8,900 1,080 Climbing Denver TRACON
01:35PM 39.6883 -104.6008 157° South 263 303 9,500 1,740 Climbing Denver Center
01:36PM 39.6067 -104.5714 164° South 279 321 11,700 1,560 Climbing Denver Center
01:37PM 39.5219 -104.5450 166° South 324 373 12,800 1,080 Climbing Denver Center
01:38PM 39.4164 -104.5222 171° South 352 405 14,000 1,260 Climbing Denver Center
01:39PM 39.3100 -104.4986 170° South 384 442 15,500 1,560 Climbing Denver Center
01:40PM 39.2039 -104.4756 170° South 387 445 17,300 1,680 Climbing Denver Center
01:41PM 39.1011 -104.4500 169° South 382 440 19,000 1,680 Climbing Denver Center
01:42PM 38.9825 -104.4161 167° South 389 448 20,800 1,500 Climbing Denver Center
01:43PM 38.8783 -104.3867 168° South 398 458 22,100 1,200 Climbing Denver Center
01:44PM 38.7561 -104.3381 163° South 413 475 23,300 1,080 Climbing Denver Center
01:45PM 38.6842 -104.2203 128° Southeast 437 503 24,400 1,140 Climbing Denver Center
01:46PM 38.5994 -104.0814 128° Southeast 441 507 25,700 1,080 Climbing Denver Center
01:47PM 38.5264 -103.9583 127° Southeast 450 518 26,700 960 Climbing Denver Center
01:48PM 38.4542 -103.8044 121° Southeast 460 529 27,800 960 Climbing Denver Center
01:49PM 38.4456 -103.6453 94° East 467 537 28,800 960 Climbing Denver Center
01:50PM 38.4364 -103.4856 94° East 470 541 29,800 1,020 Climbing Denver Center
01:51PM 38.4261 -103.2950 94° East 470 541 31,000 960 Climbing Denver Center
01:52PM 38.4172 -103.1369 94° East 467 537 31,900 960 Climbing Denver Center
01:53PM 38.4064 -102.9531 94° East 465 535 33,100 960 Climbing Denver Center
01:54PM 38.3961 -102.7972 95° East 462 532 33,900 780 Climbing Denver Center
01:55PM 38.3850 -102.6153 94° East 462 532 34,800 780 Climbing Denver Center
01:56PM 38.3758 -102.4592 94° East 462 532 35,600 720 Climbing Denver Center
01:57PM 38.3653 -102.3042 95° East 458 527 36,400 720 Climbing Denver Center
01:58PM 38.3539 -102.1244 95° East 455 524 37,200 660 Climbing Denver Center
01:59PM 38.3436 -101.9717 95° East 453 521 37,800 420 Climbing Denver Center
02:00PM 38.3306 -101.7950 95° East 450 518 38,100 240 Climbing Denver Center
02:01PM 38.3197 -101.6411 95° East 454 522 38,300 300 Climbing Denver Center
02:02PM 38.3069 -101.4617 95° East 455 524 38,800 300 Climbing Denver Center
02:04PM 38.2958 -101.3083 95° East 454 522 39,000 60 Climbing Denver Center
02:05PM 38.2828 -101.1272 95° East 458 527 39,000  Level Denver Center
02:05PM 38.2764 -101.0464 96° East 460 529 39,000  Level Kansas City Center
02:06PM 38.2642 -100.8883 96° East 465 535 39,000  Level Kansas City Center
02:07PM 38.2494 -100.7008 96° East 472 543 39,000 -300 Level Kansas City Center
02:08PM 38.2369 -100.5397 96° East 474 545 38,500 -720 Descending Kansas City Center
02:09PM 38.2211 -100.3475 96° East 483 556 37,600 -720 Descending Kansas City Center
02:10PM 38.2075 -100.1806 96° East 490 564 37,000 -300 Descending Kansas City Center
02:11PM 38.1906 -99.9897 96° East 488 562 37,000  Level Kansas City Center
02:12PM 38.1767 -99.8278 96° East 483 556 37,000  Level Kansas City Center
02:13PM 38.1625 -99.6667 96° East 480 552 37,000  Level Kansas City Center
02:14PM 38.1469 -99.4922 96° East 480 552 37,000  Level Kansas City Center
02:15PM 38.1319 -99.3239 96° East 481 554 37,000  Level Kansas City Center
02:16PM 38.1161 -99.1553 97° East 481 554 37,000  Level Kansas City Center
02:17PM 38.0978 -98.9533 97° East 482 555 37,000  Level Kansas City Center
02:19PM 38.0817 -98.7839 97° East 483 556 37,000  Level Kansas City Center
02:20PM 38.0678 -98.6236 96° East 465 535 37,000  Level Kansas City Center
02:21PM 38.0522 -98.4658 97° East 454 522 37,000  Level Kansas City Center
02:22PM 38.0367 -98.3067 97° East 453 521 37,000  Level Kansas City Center
02:23PM 38.0200 -98.1467 97° East 456 525 37,000  Level Kansas City Center
02:24PM 37.9981 -97.9539 98° East 457 526 37,000  Level Kansas City Center
02:25PM 37.9783 -97.7947 99° East 456 525 37,000  Level Kansas City Center
02:26PM 37.9547 -97.6369 101° East 454 522 37,000  Level Kansas City Center
02:27PM 37.9283 -97.4697 101° East 452 520 37,000  Level Kansas City Center
02:28PM 37.9036 -97.3111 101° East 456 525 37,000  Level Kansas City Center
02:29PM 37.8794 -97.1567 101° East 450 518 37,000  Level Kansas City Center
02:30PM 37.8553 -97.0000 101° East 452 520 37,000  Level Kansas City Center
02:31PM 37.8306 -96.8447 101° East 451 519 37,000  Level Kansas City Center
02:32PM 37.8050 -96.6858 101° East 458 527 37,000  Level Kansas City Center
02:33PM 37.7750 -96.4936 101° East 464 534 37,000  Level Kansas City Center
02:34PM 37.7492 -96.3333 101° East 466 536 37,000  Level Kansas City Center
02:35PM 37.7233 -96.1719 101° East 469 540 37,000  Level Kansas City Center
02:36PM 37.6936 -95.9953 102° East 465 535 37,000  Level Kansas City Center
02:37PM 37.6669 -95.8331 102° East 468 539 37,000  Level Kansas City Center
02:38PM 37.6397 -95.6694 102° East 472 543 37,000  Level Kansas City Center
02:39PM 37.6169 -95.5081 100° East 468 539 37,000  Level Kansas City Center
02:40PM 37.5994 -95.3425 98° East 471 542 37,000  Level Kansas City Center
02:41PM 37.5797 -95.1758 98° East 476 548 37,000  Level Kansas City Center
02:42PM 37.5614 -95.0094 98° East 478 550 37,000  Level Kansas City Center
02:43PM 37.5381 -94.8114 98° East 476 548 37,000  Level Kansas City Center
02:44PM 37.5183 -94.6469 99° East 474 545 37,000  Level Kansas City Center
02:45PM 37.4997 -94.4861 98° East 466 536 37,000  Level Kansas City Center
02:46PM 37.4814 -94.3261 98° East 463 533 37,000  Level Kansas City Center
02:47PM 37.4622 -94.1636 98° East 465 535 37,000  Level Kansas City Center
02:48PM 37.4417 -93.9958 99° East 468 539 37,000  Level Kansas City Center
02:50PM 37.4203 -93.8344 99° East 468 539 37,000  Level Kansas City Center
02:51PM 37.3997 -93.6708 99° East 473 544 37,000  Level Kansas City Center
02:52PM 37.3758 -93.4783 99° East 468 539 37,000  Level Kansas City Center
02:53PM 37.3906 -93.3142 84° East 482 555 37,000  Level Kansas City Center
02:54PM 37.4381 -93.1589 69° East 479 551 37,000  Level Kansas City Center
02:55PM 37.4908 -93.0075 66° East 475 547 37,000  Level Kansas City Center
02:56PM 37.5400 -92.8514 68° East 478 550 37,000  Level Kansas City Center
02:57PM 37.5881 -92.6958 69° East 478 550 37,000  Level Kansas City Center
02:58PM 37.6464 -92.5100 68° East 478 550 37,000  Level Kansas City Center
02:59PM 37.6964 -92.3525 68° East 480 552 37,000  Level Kansas City Center
03:00PM 37.7447 -92.1972 68° East 477 549 37,000  Level Kansas City Center
03:01PM 37.7908 -92.0475 69° East 476 548 37,000  Level Kansas City Center
03:02PM 37.8400 -91.8939 68° East 475 547 37,000  Level Kansas City Center
03:03PM 37.8981 -91.7083 68° East 475 547 37,000  Level Kansas City Center
03:04PM 37.9458 -91.5531 69° East 475 547 37,000  Level Kansas City Center
03:05PM 37.9936 -91.3964 69° East 476 548 37,000  Level Kansas City Center
03:06PM 38.0414 -91.2400 69° East 476 548 37,000  Level Kansas City Center
03:07PM 38.0886 -91.0836 69° East 475 547 37,000  Level Kansas City Center
03:08PM 38.1375 -90.9222 69° East 476 548 37,000  Level Kansas City Center
03:09PM 38.1831 -90.7647 70° East 478 550 37,000  Level Kansas City Center
03:10PM 38.2294 -90.6089 69° East 476 548 37,000  Level Kansas City Center
03:11PM 38.2839 -90.4178 70° East 479 551 37,000  Level Kansas City Center
03:12PM 38.3308 -90.2611 69° East 481 554 37,000  Level Kansas City Center
03:13PM 38.3806 -90.1072 68° East 479 551 37,000  Level Kansas City Center
03:14PM 38.4300 -89.9561 67° East 472 543 37,000  Level Kansas City Center
03:15PM 38.4889 -89.7681 68° East 481 554 37,000  Level Kansas City Center
03:16PM 38.5394 -89.6075 68° East 485 558 37,000  Level Kansas City Center
03:17PM 38.5914 -89.4400 68° East 474 545 37,000  Level Kansas City Center
03:18PM 38.6397 -89.2825 69° East 477 549 37,000  Level Kansas City Center
03:19PM 38.6914 -89.1131 69° East 475 547 37,000  Level Kansas City Center
03:21PM 38.7306 -88.9825 69° East 479 551 37,000  Level Kansas City Center
03:22PM 38.7928 -88.7922 67° East 483 556 37,000  Level Kansas City Center
03:23PM 38.8417 -88.6281 69° East 479 551 37,000  Level Kansas City Center
03:24PM 38.8872 -88.4719 69° East 470 541 37,000  Level Kansas City Center
03:25PM 38.9336 -88.3150 69° East 468 539 37,000  Level Kansas City Center
03:26PM 38.9800 -88.1581 69° East 467 537 37,000  Level Kansas City Center
03:26PM 39.0033 -88.0683 71° East 463 533 37,000  Level Indianapolis Center
03:27PM 39.0497 -87.9092 69° East 469 540 37,000 -180 Level Indianapolis Center
03:28PM 39.0956 -87.7511 69° East 469 540 36,700 -420 Descending Indianapolis Center
03:29PM 39.1422 -87.5908 69° East 471 542 36,200 -660 Descending Indianapolis Center
03:30PM 39.1953 -87.4011 70° East 472 543 35,400 -840 Descending Indianapolis Center
03:31PM 39.2072 -87.2358 85° East 476 548 34,500 -900 Descending Indianapolis Center
03:33PM 39.1872 -87.0689 99° East 473 544 33,600 -900 Descending Indianapolis Center
03:34PM 39.1625 -86.8975 100° East 487 560 32,700 -1,020 Descending Indianapolis Center
03:35PM 39.1378 -86.7200 100° East 481 554 31,500 -1,260 Descending Indianapolis Center
03:36PM 39.1169 -86.5411 98° East 452 520 30,200 -1,260 Descending Indianapolis Center
03:37PM 39.1042 -86.3856 96° East 443 510 29,000 -1,200 Descending Indianapolis Center
03:38PM 39.1017 -86.2333 91° East 433 498 27,800 -1,260 Descending Indianapolis Center
03:39PM 39.1503 -86.0947 66° East 427 491 26,500 -1,200 Descending Indianapolis Center
03:40PM 39.2144 -85.9631 58° Northeast 435 501 25,400 -1,260 Descending Indianapolis Center
03:41PM 39.2936 -85.8022 58° Northeast 446 513 23,900 -1,500 Descending Indianapolis Center
03:42PM 39.3581 -85.6711 58° Northeast 438 504 22,300 -1,560 Descending Indianapolis Center
03:43PM 39.4194 -85.5444 58° Northeast 422 486 20,700 -1,560 Descending Indianapolis Center
03:44PM 39.4806 -85.4183 58° Northeast 418 481 19,100 -1,500 Descending Indianapolis Center
03:45PM 39.5411 -85.2925 58° Northeast 415 478 17,700 -1,500 Descending Indianapolis Center
03:46PM 39.6000 -85.1681 58° Northeast 408 470 16,100 -1,800 Descending Indianapolis Center
03:47PM 39.6697 -85.0242 58° Northeast 398 458 14,100 -1,860 Descending Indianapolis Center
03:48PM 39.7208 -84.9069 60° Northeast 380 437 12,400 -1,680 Descending Indianapolis Center
03:49PM 39.7619 -84.7961 64° Northeast 369 425 10,700 -1,200 Descending Indianapolis Center
03:50PM 39.7956 -84.6467 74° East 365 420 10,000 -360 Descending Indianapolis Center
03:51PM 39.8458 -84.5092 64° Northeast 323 372 10,000 -540 Level Indianapolis Center
03:52PM 39.8894 -84.4539 44° Northeast 310 357 8,900 -1,620 Descending Indianapolis Center
03:53PM 39.9500 -84.3811 43° Northeast 297 342 7,100 -1,740 Descending Indianapolis Center
03:54PM 39.9994 -84.2967 53° Northeast 293 337 5,400 -1,620 Descending Indianapolis Center
03:55PM 40.0256 -84.2086 69° East 289 333 3,800 -1,320 Descending Indianapolis Center
03:56PM 39.9903 -84.1333 121° Southeast 257 296 2,800 -840 Descending Indianapolis Center
03:57PM 39.9442 -84.1322 179° South 195 224 2,100 -660 Descending Indianapolis Center
03:59PM 39.9094 -84.1858 230° Southwest 125 144 1,400 -600 Descending Indianapolis Center